<?xml version='1.0' encoding='UTF-8'?><gpx version="1.1" creator="JPX - https://github.com/jenetics/jpx" xmlns="http://www.topografix.com/GPX/1/1"><trk><trkseg><trkpt lat="43.05520755339412" lon="11.488830142247204"><ele>553.0</ele><time>2026-04-11T08:01:57Z</time></trkpt><trkpt lat="43.055140819774536" lon="11.488820378395545"><ele>553.0</ele><time>2026-04-11T08:02:00Z</time></trkpt><trkpt lat="43.055080563627335" lon="11.488849479770069"><ele>553.0</ele><time>2026-04-11T08:02:09Z</time></trkpt><trkpt lat="43.0550064604814" lon="11.48883178747472"><ele>553.0</ele><time>2026-04-11T08:02:14Z</time></trkpt><trkpt lat="43.05494167830776" lon="11.48883127836662"><ele>553.0</ele><time>2026-04-11T08:02:18Z</time></trkpt><trkpt lat="43.054891559482314" lon="11.48877616774575"><ele>553.0</ele><time>2026-04-11T08:02:24Z</time></trkpt><trkpt lat="43.05483724898401" lon="11.488719101952409"><ele>553.0</ele><time>2026-04-11T08:02:31Z</time></trkpt><trkpt lat="43.05480045620682" lon="11.488639590834834"><ele>554.7142857142857</ele><time>2026-04-11T08:02:38Z</time></trkpt><trkpt lat="43.054773590113534" lon="11.488538398704696"><ele>556.4285714285714</ele><time>2026-04-11T08:02:48Z</time></trkpt><trkpt lat="43.05478923679809" lon="11.488439208126794"><ele>558.1428571428571</ele><time>2026-04-11T08:02:52Z</time></trkpt><trkpt lat="43.05479057900961" lon="11.488344494962698"><ele>559.8571428571429</ele><time>2026-04-11T08:02:58Z</time></trkpt><trkpt lat="43.054787133172596" lon="11.488253297833547"><ele>561.5714285714286</ele><time>2026-04-11T08:03:03Z</time></trkpt><trkpt lat="43.054781209595205" lon="11.488147935307795"><ele>563.2857142857142</ele><time>2026-04-11T08:03:09Z</time></trkpt><trkpt lat="43.05477303953388" lon="11.488056974217793"><ele>565.0</ele><time>2026-04-11T08:03:15Z</time></trkpt><trkpt lat="43.0547633557381" lon="11.487970050126918"><ele>565.1428571428571</ele><time>2026-04-11T08:03:20Z</time></trkpt><trkpt lat="43.054744983264094" lon="11.487867284176206"><ele>565.2857142857142</ele><time>2026-04-11T08:03:26Z</time></trkpt><trkpt lat="43.05473614289223" lon="11.487781651625356"><ele>565.4285714285714</ele><time>2026-04-11T08:03:32Z</time></trkpt><trkpt lat="43.05473453446043" lon="11.48768018222194"><ele>565.5714285714286</ele><time>2026-04-11T08:03:39Z</time></trkpt><trkpt lat="43.05472789145636" lon="11.487587589634256"><ele>565.7142857142858</ele><time>2026-04-11T08:03:46Z</time></trkpt><trkpt lat="43.05468558346746" lon="11.487490135078556"><ele>565.8571428571429</ele><time>2026-04-11T08:03:51Z</time></trkpt><trkpt lat="43.0546543576289" lon="11.487393970714752"><ele>566.0</ele><time>2026-04-11T08:03:56Z</time></trkpt><trkpt lat="43.05464049774474" lon="11.487306085182293"><ele>566.0</ele><time>2026-04-11T08:04:05Z</time></trkpt><trkpt lat="43.05462525697055" lon="11.487215067599372"><ele>566.0</ele><time>2026-04-11T08:04:10Z</time></trkpt><trkpt lat="43.05457685898187" lon="11.487142304622825"><ele>566.0</ele><time>2026-04-11T08:04:14Z</time></trkpt><trkpt lat="43.05452362695233" lon="11.487077051317254"><ele>566.0</ele><time>2026-04-11T08:04:19Z</time></trkpt><trkpt lat="43.054457352581316" lon="11.487058999966402"><ele>566.0</ele><time>2026-04-11T08:04:25Z</time></trkpt><trkpt lat="43.05441734708643" lon="11.486959140023377"><ele>566.0</ele><time>2026-04-11T08:04:31Z</time></trkpt><trkpt lat="43.054385406817" lon="11.486866635678133"><ele>566.0</ele><time>2026-04-11T08:04:36Z</time></trkpt><trkpt lat="43.05434482653542" lon="11.486785678241583"><ele>565.7142857142858</ele><time>2026-04-11T08:04:41Z</time></trkpt><trkpt lat="43.054295193045306" lon="11.486706133704477"><ele>565.4285714285714</ele><time>2026-04-11T08:04:48Z</time></trkpt><trkpt lat="43.05425079679579" lon="11.486620602424503"><ele>565.1428571428571</ele><time>2026-04-11T08:04:54Z</time></trkpt><trkpt lat="43.0542132852996" lon="11.486544484278202"><ele>564.8571428571429</ele><time>2026-04-11T08:04:59Z</time></trkpt><trkpt lat="43.054177863792205" lon="11.486459434648422"><ele>564.5714285714286</ele><time>2026-04-11T08:05:11Z</time></trkpt><trkpt lat="43.054118247295605" lon="11.48640495657352"><ele>564.2857142857143</ele><time>2026-04-11T08:05:16Z</time></trkpt><trkpt lat="43.054067250479285" lon="11.486338366963516"><ele>564.0</ele><time>2026-04-11T08:05:23Z</time></trkpt><trkpt lat="43.054018564237545" lon="11.486262331744543"><ele>562.1428571428571</ele><time>2026-04-11T08:05:27Z</time></trkpt><trkpt lat="43.05398687440521" lon="11.486182479559334"><ele>560.2857142857142</ele><time>2026-04-11T08:05:33Z</time></trkpt><trkpt lat="43.053942059828614" lon="11.486121490156759"><ele>558.4285714285713</ele><time>2026-04-11T08:05:38Z</time></trkpt><trkpt lat="43.053901341105544" lon="11.486055623640082"><ele>556.5714285714286</ele><time>2026-04-11T08:05:43Z</time></trkpt><trkpt lat="43.05385707351072" lon="11.485993612108716"><ele>554.7142857142857</ele><time>2026-04-11T08:05:48Z</time></trkpt><trkpt lat="43.053805799192055" lon="11.485924661713382"><ele>552.8571428571428</ele><time>2026-04-11T08:05:54Z</time></trkpt><trkpt lat="43.05375421666508" lon="11.48586036052767"><ele>551.0</ele><time>2026-04-11T08:05:59Z</time></trkpt><trkpt lat="43.0537015813775" lon="11.48579685918137"><ele>550.9999999999999</ele><time>2026-04-11T08:06:05Z</time></trkpt><trkpt lat="43.05367520709915" lon="11.485713736918125"><ele>551.0</ele><time>2026-04-11T08:06:09Z</time></trkpt><trkpt lat="43.05363453470038" lon="11.485625178975239"><ele>551.0</ele><time>2026-04-11T08:06:16Z</time></trkpt><trkpt lat="43.053581782292376" lon="11.485573000067506"><ele>551.0</ele><time>2026-04-11T08:06:21Z</time></trkpt><trkpt lat="43.05350574826415" lon="11.48553218519961"><ele>551.0</ele><time>2026-04-11T08:06:26Z</time></trkpt><trkpt lat="43.05343574753647" lon="11.485512169519868"><ele>550.9999999999999</ele><time>2026-04-11T08:06:30Z</time></trkpt><trkpt lat="43.053368395015575" lon="11.4854923475272"><ele>551.0</ele><time>2026-04-11T08:06:37Z</time></trkpt><trkpt lat="43.05330501449591" lon="11.485468296694044"><ele>550.5714285714286</ele><time>2026-04-11T08:06:42Z</time></trkpt><trkpt lat="43.05323649028199" lon="11.485428776414114"><ele>550.1428571428571</ele><time>2026-04-11T08:06:47Z</time></trkpt><trkpt lat="43.05317182121564" lon="11.485410169155715"><ele>549.7142857142858</ele><time>2026-04-11T08:06:53Z</time></trkpt><trkpt lat="43.053106784594284" lon="11.48535390433898"><ele>549.2857142857142</ele><time>2026-04-11T08:06:59Z</time></trkpt><trkpt lat="43.053044483495505" lon="11.485307210527363"><ele>548.8571428571429</ele><time>2026-04-11T08:07:04Z</time></trkpt><trkpt lat="43.052978681584854" lon="11.485255864118042"><ele>548.4285714285714</ele><time>2026-04-11T08:07:10Z</time></trkpt><trkpt lat="43.0529405684635" lon="11.485185848962626"><ele>548.0</ele><time>2026-04-11T08:07:16Z</time></trkpt><trkpt lat="43.05288880097531" lon="11.48513494993058"><ele>548.0000000000001</ele><time>2026-04-11T08:07:22Z</time></trkpt><trkpt lat="43.0528208695325" lon="11.485086478214521"><ele>548.0</ele><time>2026-04-11T08:07:27Z</time></trkpt><trkpt lat="43.052754915180685" lon="11.485035395882976"><ele>548.0</ele><time>2026-04-11T08:07:32Z</time></trkpt><trkpt lat="43.05268608636753" lon="11.485017565518866"><ele>548.0</ele><time>2026-04-11T08:07:37Z</time></trkpt><trkpt lat="43.052634914904424" lon="11.484962118922189"><ele>548.0</ele><time>2026-04-11T08:07:42Z</time></trkpt><trkpt lat="43.052581224734894" lon="11.484898967452953"><ele>548.0000000000001</ele><time>2026-04-11T08:07:49Z</time></trkpt><trkpt lat="43.052538200322616" lon="11.484835614900236"><ele>548.0</ele><time>2026-04-11T08:07:55Z</time></trkpt><trkpt lat="43.05249638671369" lon="11.48475031065889"><ele>550.4285714285714</ele><time>2026-04-11T08:08:02Z</time></trkpt><trkpt lat="43.0524281232791" lon="11.484713155494006"><ele>552.8571428571429</ele><time>2026-04-11T08:08:08Z</time></trkpt><trkpt lat="43.05239059211203" lon="11.484641012079413"><ele>555.2857142857142</ele><time>2026-04-11T08:08:14Z</time></trkpt><trkpt lat="43.05233839148715" lon="11.484569325328973"><ele>557.7142857142858</ele><time>2026-04-11T08:08:21Z</time></trkpt><trkpt lat="43.052294558258616" lon="11.484496908037695"><ele>560.1428571428571</ele><time>2026-04-11T08:08:27Z</time></trkpt><trkpt lat="43.052240289147896" lon="11.48442412963465"><ele>562.5714285714286</ele><time>2026-04-11T08:08:34Z</time></trkpt><trkpt lat="43.05221518324543" lon="11.484341096763982"><ele>565.0</ele><time>2026-04-11T08:08:40Z</time></trkpt><trkpt lat="43.0521775865225" lon="11.48426218433942"><ele>564.9999999999999</ele><time>2026-04-11T08:08:47Z</time></trkpt><trkpt lat="43.05214424549726" lon="11.484170914690026"><ele>565.0</ele><time>2026-04-11T08:08:53Z</time></trkpt><trkpt lat="43.05209256642579" lon="11.484119001013886"><ele>565.0</ele><time>2026-04-11T08:08:59Z</time></trkpt><trkpt lat="43.052070967333925" lon="11.484033081098364"><ele>565.0</ele><time>2026-04-11T08:09:06Z</time></trkpt><trkpt lat="43.052018962885306" lon="11.483983835207116"><ele>565.0</ele><time>2026-04-11T08:09:13Z</time></trkpt><trkpt lat="43.05196772959056" lon="11.483922293975775"><ele>564.9999999999999</ele><time>2026-04-11T08:09:20Z</time></trkpt><trkpt lat="43.051890790847494" lon="11.48389892682424"><ele>565.0</ele><time>2026-04-11T08:09:26Z</time></trkpt><trkpt lat="43.05183151770815" lon="11.483940857858418"><ele>564.9999999999999</ele><time>2026-04-11T08:09:34Z</time></trkpt><trkpt lat="43.05176872671154" lon="11.48392163250891"><ele>565.0</ele><time>2026-04-11T08:09:38Z</time></trkpt><trkpt lat="43.05169199486013" lon="11.48390552866412"><ele>565.0</ele><time>2026-04-11T08:09:44Z</time></trkpt><trkpt lat="43.05162498880496" lon="11.48393182286782"><ele>565.0</ele><time>2026-04-11T08:09:50Z</time></trkpt><trkpt lat="43.051560663959" lon="11.483905483287176"><ele>565.0</ele><time>2026-04-11T08:09:55Z</time></trkpt><trkpt lat="43.05149660009707" lon="11.4838772725625"><ele>564.9999999999999</ele><time>2026-04-11T08:10:01Z</time></trkpt><trkpt lat="43.05143324813516" lon="11.48386622437826"><ele>565.0</ele><time>2026-04-11T08:10:07Z</time></trkpt><trkpt lat="43.05137031344075" lon="11.483843071849172"><ele>565.2857142857142</ele><time>2026-04-11T08:10:11Z</time></trkpt><trkpt lat="43.05130722148222" lon="11.483801789751624"><ele>565.5714285714286</ele><time>2026-04-11T08:10:16Z</time></trkpt><trkpt lat="43.05124284724691" lon="11.483760415884413"><ele>565.8571428571429</ele><time>2026-04-11T08:10:24Z</time></trkpt><trkpt lat="43.0511831033902" lon="11.483730881110493"><ele>566.1428571428571</ele><time>2026-04-11T08:10:29Z</time></trkpt><trkpt lat="43.05112006407151" lon="11.483686924552222"><ele>566.4285714285714</ele><time>2026-04-11T08:10:34Z</time></trkpt><trkpt lat="43.05106857029452" lon="11.48363201289793"><ele>566.7142857142857</ele><time>2026-04-11T08:10:39Z</time></trkpt><trkpt lat="43.0510118686153" lon="11.483566746480525"><ele>567.0</ele><time>2026-04-11T08:10:44Z</time></trkpt><trkpt lat="43.050979394807484" lon="11.483477234963269"><ele>567.0</ele><time>2026-04-11T08:10:48Z</time></trkpt><trkpt lat="43.05096910075622" lon="11.483364198607065"><ele>567.0</ele><time>2026-04-11T08:10:57Z</time></trkpt><trkpt lat="43.05095527545219" lon="11.483280120426056"><ele>567.0</ele><time>2026-04-11T08:11:04Z</time></trkpt><trkpt lat="43.05096071654241" lon="11.483187959754401"><ele>567.0</ele><time>2026-04-11T08:11:08Z</time></trkpt><trkpt lat="43.050953528632974" lon="11.483059421161192"><ele>567.0</ele><time>2026-04-11T08:11:16Z</time></trkpt><trkpt lat="43.05094757447732" lon="11.482948052855322"><ele>567.0</ele><time>2026-04-11T08:11:22Z</time></trkpt><trkpt lat="43.05092528535979" lon="11.48286085088633"><ele>566.4285714285714</ele><time>2026-04-11T08:11:28Z</time></trkpt><trkpt lat="43.0508844315299" lon="11.482785320248254"><ele>565.8571428571429</ele><time>2026-04-11T08:11:33Z</time></trkpt><trkpt lat="43.050866107164765" lon="11.48270097922845"><ele>565.2857142857142</ele><time>2026-04-11T08:11:39Z</time></trkpt><trkpt lat="43.050832489244506" lon="11.482620414636276"><ele>564.7142857142858</ele><time>2026-04-11T08:11:45Z</time></trkpt><trkpt lat="43.05078912468301" lon="11.482553685167044"><ele>564.1428571428571</ele><time>2026-04-11T08:11:50Z</time></trkpt><trkpt lat="43.050742807407495" lon="11.482480493661342"><ele>563.5714285714286</ele><time>2026-04-11T08:11:56Z</time></trkpt><trkpt lat="43.05069970171775" lon="11.482412062947484"><ele>563.0</ele><time>2026-04-11T08:12:01Z</time></trkpt><trkpt lat="43.05066623176336" lon="11.482316763673735"><ele>564.5</ele><time>2026-04-11T08:12:08Z</time></trkpt><trkpt lat="43.05060619051535" lon="11.482259964008003"><ele>566.0</ele><time>2026-04-11T08:12:13Z</time></trkpt><trkpt lat="43.050546684594075" lon="11.482199224683542"><ele>567.5</ele><time>2026-04-11T08:12:18Z</time></trkpt><trkpt lat="43.050477505318526" lon="11.482191076924805"><ele>569.0</ele><time>2026-04-11T08:12:24Z</time></trkpt><trkpt lat="43.0504193261195" lon="11.482148594764718"><ele>570.5</ele><time>2026-04-11T08:12:29Z</time></trkpt><trkpt lat="43.050320694549676" lon="11.482125318603941"><ele>572.0</ele><time>2026-04-11T08:12:36Z</time></trkpt><trkpt lat="43.05025383034554" lon="11.482112650169372"><ele>570.7142857142857</ele><time>2026-04-11T08:12:43Z</time></trkpt><trkpt lat="43.05019642821717" lon="11.482058536788914"><ele>569.4285714285714</ele><time>2026-04-11T08:12:49Z</time></trkpt><trkpt lat="43.050124689636846" lon="11.482061488069245"><ele>568.1428571428571</ele><time>2026-04-11T08:12:55Z</time></trkpt><trkpt lat="43.05003980958586" lon="11.482023103960652"><ele>566.8571428571429</ele><time>2026-04-11T08:13:02Z</time></trkpt><trkpt lat="43.049977258771875" lon="11.481987988702516"><ele>565.5714285714286</ele><time>2026-04-11T08:13:08Z</time></trkpt><trkpt lat="43.049909553037956" lon="11.481941350527723"><ele>564.2857142857142</ele><time>2026-04-11T08:13:13Z</time></trkpt><trkpt lat="43.04986537566446" lon="11.48187385956286"><ele>563.0</ele><time>2026-04-11T08:13:18Z</time></trkpt><trkpt lat="43.04979591991087" lon="11.481830765059946"><ele>563.0</ele><time>2026-04-11T08:13:26Z</time></trkpt><trkpt lat="43.04973814791982" lon="11.48179598616712"><ele>563.0</ele><time>2026-04-11T08:13:31Z</time></trkpt><trkpt lat="43.04967081405077" lon="11.481747728411579"><ele>563.0</ele><time>2026-04-11T08:13:36Z</time></trkpt><trkpt lat="43.049606856836526" lon="11.481692648454187"><ele>563.0</ele><time>2026-04-11T08:13:42Z</time></trkpt><trkpt lat="43.04955224438069" lon="11.481647041899977"><ele>563.0</ele><time>2026-04-11T08:13:48Z</time></trkpt><trkpt lat="43.04949643811147" lon="11.481598554330674"><ele>563.0</ele><time>2026-04-11T08:13:52Z</time></trkpt><trkpt lat="43.049431140726334" lon="11.481575153134367"><ele>563.0</ele><time>2026-04-11T08:13:57Z</time></trkpt><trkpt lat="43.04937969313099" lon="11.481512822658225"><ele>563.0</ele><time>2026-04-11T08:14:03Z</time></trkpt><trkpt lat="43.04931750602125" lon="11.481474654217566"><ele>563.0</ele><time>2026-04-11T08:14:08Z</time></trkpt><trkpt lat="43.04926341979157" lon="11.481415133383676"><ele>563.0</ele><time>2026-04-11T08:14:12Z</time></trkpt><trkpt lat="43.049200708257665" lon="11.481378969742487"><ele>563.0</ele><time>2026-04-11T08:14:18Z</time></trkpt><trkpt lat="43.04914508969388" lon="11.48130496274849"><ele>563.0</ele><time>2026-04-11T08:14:22Z</time></trkpt><trkpt lat="43.04907874756208" lon="11.481251681618673"><ele>563.0</ele><time>2026-04-11T08:14:27Z</time></trkpt><trkpt lat="43.049012957604155" lon="11.481180922452433"><ele>563.0</ele><time>2026-04-11T08:14:34Z</time></trkpt><trkpt lat="43.048956519503456" lon="11.481135051855395"><ele>561.5714285714286</ele><time>2026-04-11T08:14:39Z</time></trkpt><trkpt lat="43.048895481300804" lon="11.481080087598757"><ele>560.1428571428571</ele><time>2026-04-11T08:14:45Z</time></trkpt><trkpt lat="43.04883918453625" lon="11.48102893816217"><ele>558.7142857142858</ele><time>2026-04-11T08:14:50Z</time></trkpt><trkpt lat="43.048782579765536" lon="11.480989403649197"><ele>557.2857142857142</ele><time>2026-04-11T08:14:56Z</time></trkpt><trkpt lat="43.048726292973605" lon="11.480941838826551"><ele>555.8571428571429</ele><time>2026-04-11T08:15:01Z</time></trkpt><trkpt lat="43.04866302374577" lon="11.480927965854564"><ele>554.4285714285714</ele><time>2026-04-11T08:15:06Z</time></trkpt><trkpt lat="43.04858996137608" lon="11.480914868689267"><ele>553.0</ele><time>2026-04-11T08:15:11Z</time></trkpt><trkpt lat="43.048526970913514" lon="11.480907950311295"><ele>553.0</ele><time>2026-04-11T08:15:15Z</time></trkpt><trkpt lat="43.04844491894359" lon="11.480888631209872"><ele>553.0</ele><time>2026-04-11T08:15:21Z</time></trkpt><trkpt lat="43.048377090588815" lon="11.48088294560237"><ele>553.0</ele><time>2026-04-11T08:15:26Z</time></trkpt><trkpt lat="43.04832680839005" lon="11.480830426981603"><ele>553.0</ele><time>2026-04-11T08:15:34Z</time></trkpt><trkpt lat="43.0482696484986" lon="11.480789049521832"><ele>553.0</ele><time>2026-04-11T08:15:53Z</time></trkpt><trkpt lat="43.048206792171754" lon="11.480775768866858"><ele>553.0</ele><time>2026-04-11T08:15:59Z</time></trkpt><trkpt lat="43.04813090876035" lon="11.480720248832384"><ele>553.0</ele><time>2026-04-11T08:16:05Z</time></trkpt><trkpt lat="43.04806195726409" lon="11.48067413616285"><ele>551.8571428571429</ele><time>2026-04-11T08:16:09Z</time></trkpt><trkpt lat="43.04799982898334" lon="11.48065282999887"><ele>550.7142857142858</ele><time>2026-04-11T08:16:17Z</time></trkpt><trkpt lat="43.04793359768242" lon="11.48066593950744"><ele>549.5714285714286</ele><time>2026-04-11T08:16:23Z</time></trkpt><trkpt lat="43.04786316311418" lon="11.480688688540674"><ele>548.4285714285714</ele><time>2026-04-11T08:16:31Z</time></trkpt><trkpt lat="43.047803849417235" lon="11.480731199894214"><ele>547.2857142857143</ele><time>2026-04-11T08:16:37Z</time></trkpt><trkpt lat="43.04773472230217" lon="11.480757175029012"><ele>546.1428571428571</ele><time>2026-04-11T08:16:41Z</time></trkpt><trkpt lat="43.04767983770412" lon="11.480823200709185"><ele>545.0</ele><time>2026-04-11T08:17:02Z</time></trkpt><trkpt lat="43.047648678052425" lon="11.480899959766063"><ele>545.0</ele><time>2026-04-11T08:17:06Z</time></trkpt><trkpt lat="43.04761910589913" lon="11.48098108692945"><ele>545.0</ele><time>2026-04-11T08:17:12Z</time></trkpt><trkpt lat="43.04756110178949" lon="11.481018485617717"><ele>545.0</ele><time>2026-04-11T08:17:17Z</time></trkpt><trkpt lat="43.04748115451634" lon="11.481028351764039"><ele>545.0</ele><time>2026-04-11T08:17:20Z</time></trkpt><trkpt lat="43.04749728729381" lon="11.481162873605653"><ele>545.0</ele><time>2026-04-11T08:17:30Z</time></trkpt><trkpt lat="43.04742619065961" lon="11.481198870719314"><ele>545.0</ele><time>2026-04-11T08:17:38Z</time></trkpt><trkpt lat="43.04743129662553" lon="11.48108320475679"><ele>544.5714285714286</ele><time>2026-04-11T08:17:44Z</time></trkpt><trkpt lat="43.04739146863666" lon="11.480956160266153"><ele>544.1428571428572</ele><time>2026-04-11T08:17:50Z</time></trkpt><trkpt lat="43.047325366910194" lon="11.480927981966728"><ele>543.7142857142858</ele><time>2026-04-11T08:17:55Z</time></trkpt><trkpt lat="43.047267226874624" lon="11.480881126111418"><ele>543.2857142857143</ele><time>2026-04-11T08:18:01Z</time></trkpt><trkpt lat="43.047212162949926" lon="11.480823454778518"><ele>542.8571428571429</ele><time>2026-04-11T08:18:08Z</time></trkpt><trkpt lat="43.047157402395136" lon="11.48086969053951"><ele>542.4285714285714</ele><time>2026-04-11T08:18:16Z</time></trkpt><trkpt lat="43.04709559675944" lon="11.480833285540427"><ele>542.0</ele><time>2026-04-11T08:18:23Z</time></trkpt><trkpt lat="43.04706683124221" lon="11.480729880934609"><ele>542.0</ele><time>2026-04-11T08:18:29Z</time></trkpt><trkpt lat="43.047028484347905" lon="11.480642810317699"><ele>542.0</ele><time>2026-04-11T08:18:33Z</time></trkpt><trkpt lat="43.04693714197525" lon="11.480591985543747"><ele>542.0</ele><time>2026-04-11T08:18:41Z</time></trkpt><trkpt lat="43.04687171358065" lon="11.480555750727904"><ele>542.0</ele><time>2026-04-11T08:18:52Z</time></trkpt><trkpt lat="43.04684736572122" lon="11.480458552499083"><ele>542.0</ele><time>2026-04-11T08:18:59Z</time></trkpt><trkpt lat="43.04678365472276" lon="11.480423956429004"><ele>542.0</ele><time>2026-04-11T08:19:07Z</time></trkpt><trkpt lat="43.04671300028034" lon="11.480437476668783"><ele>541.0</ele><time>2026-04-11T08:19:13Z</time></trkpt><trkpt lat="43.04664359376438" lon="11.480417779843432"><ele>540.0</ele><time>2026-04-11T08:19:18Z</time></trkpt><trkpt lat="43.04657492626972" lon="11.480422593793692"><ele>539.0</ele><time>2026-04-11T08:19:22Z</time></trkpt><trkpt lat="43.04650708065558" lon="11.480417564121694"><ele>538.0</ele><time>2026-04-11T08:19:27Z</time></trkpt><trkpt lat="43.04643863898285" lon="11.48039244941366"><ele>537.0</ele><time>2026-04-11T08:19:33Z</time></trkpt><trkpt lat="43.046382595755716" lon="11.480435850414148"><ele>536.0</ele><time>2026-04-11T08:19:37Z</time></trkpt><trkpt lat="43.04629308256911" lon="11.48036753321599"><ele>535.0</ele><time>2026-04-11T08:19:41Z</time></trkpt><trkpt lat="43.04623621033498" lon="11.480325308766348"><ele>535.0</ele><time>2026-04-11T08:19:46Z</time></trkpt><trkpt lat="43.046167667323935" lon="11.480291575891172"><ele>535.0</ele><time>2026-04-11T08:19:59Z</time></trkpt><trkpt lat="43.046052286448564" lon="11.480067925614605"><ele>535.0</ele><time>2026-04-11T08:20:59Z</time></trkpt><trkpt lat="43.045970454697404" lon="11.480049085955057"><ele>535.0</ele><time>2026-04-11T08:21:08Z</time></trkpt><trkpt lat="43.045900113742" lon="11.480025283551344"><ele>535.0</ele><time>2026-04-11T08:21:12Z</time></trkpt><trkpt lat="43.04583225150503" lon="11.479943197781926"><ele>535.0</ele><time>2026-04-11T08:21:39Z</time></trkpt><trkpt lat="43.04589723671682" lon="11.4800067261519"><ele>535.0</ele><time>2026-04-11T08:21:42Z</time></trkpt><trkpt lat="43.045883960737186" lon="11.479908606447498"><ele>535.0</ele><time>2026-04-11T08:21:47Z</time></trkpt><trkpt lat="43.04589901952399" lon="11.47977710602745"><ele>535.0</ele><time>2026-04-11T08:21:51Z</time></trkpt><trkpt lat="43.046074109134665" lon="11.479713463593464"><ele>535.0</ele><time>2026-04-11T08:22:02Z</time></trkpt><trkpt lat="43.04616113594361" lon="11.479674267371987"><ele>535.0</ele><time>2026-04-11T08:22:06Z</time></trkpt><trkpt lat="43.04622173182827" lon="11.479606434943939"><ele>535.0</ele><time>2026-04-11T08:22:11Z</time></trkpt><trkpt lat="43.04624662237079" lon="11.479517231159878"><ele>535.0</ele><time>2026-04-11T08:22:16Z</time></trkpt><trkpt lat="43.046193262880436" lon="11.479415021774637"><ele>535.0</ele><time>2026-04-11T08:22:18Z</time></trkpt><trkpt lat="43.04617718951191" lon="11.479314571818746"><ele>535.0</ele><time>2026-04-11T08:22:22Z</time></trkpt><trkpt lat="43.04622339988658" lon="11.479216595345594"><ele>535.0</ele><time>2026-04-11T08:22:29Z</time></trkpt><trkpt lat="43.04621986760566" lon="11.479125025674474"><ele>534.3333333333334</ele><time>2026-04-11T08:22:34Z</time></trkpt><trkpt lat="43.04618473815132" lon="11.479051525373047"><ele>533.6666666666667</ele><time>2026-04-11T08:22:42Z</time></trkpt><trkpt lat="43.046182308923754" lon="11.478952869147857"><ele>533.0</ele><time>2026-04-11T08:22:45Z</time></trkpt><trkpt lat="43.046200502995056" lon="11.478870106458391"><ele>532.3333333333334</ele><time>2026-04-11T08:22:49Z</time></trkpt><trkpt lat="43.04616912936614" lon="11.47878917671025"><ele>531.6666666666666</ele><time>2026-04-11T08:22:52Z</time></trkpt><trkpt lat="43.046156560445404" lon="11.478702952373038"><ele>531.0</ele><time>2026-04-11T08:22:58Z</time></trkpt><trkpt lat="43.04609791937979" lon="11.478512947267197"><ele>528.8571428571429</ele><time>2026-04-11T08:23:10Z</time></trkpt><trkpt lat="43.046049128686974" lon="11.478438339877062"><ele>526.7142857142858</ele><time>2026-04-11T08:23:14Z</time></trkpt><trkpt lat="43.04600386195537" lon="11.478357444419263"><ele>524.5714285714286</ele><time>2026-04-11T08:23:18Z</time></trkpt><trkpt lat="43.04596712761633" lon="11.478276384847709"><ele>522.4285714285714</ele><time>2026-04-11T08:23:24Z</time></trkpt><trkpt lat="43.04590693925556" lon="11.478226317547158"><ele>520.2857142857142</ele><time>2026-04-11T08:23:29Z</time></trkpt><trkpt lat="43.04587901247518" lon="11.478145885280407"><ele>518.1428571428571</ele><time>2026-04-11T08:23:35Z</time></trkpt><trkpt lat="43.045825836203434" lon="11.478071850990702"><ele>516.0</ele><time>2026-04-11T08:23:40Z</time></trkpt><trkpt lat="43.04578399896391" lon="11.477976152327315"><ele>520.2</ele><time>2026-04-11T08:23:48Z</time></trkpt><trkpt lat="43.045737731442834" lon="11.477912318345151"><ele>524.4000000000001</ele><time>2026-04-11T08:23:54Z</time></trkpt><trkpt lat="43.04572089417948" lon="11.47781339356308"><ele>528.6</ele><time>2026-04-11T08:23:58Z</time></trkpt><trkpt lat="43.045706576455494" lon="11.477711988832025"><ele>532.8000000000001</ele><time>2026-04-11T08:24:06Z</time></trkpt><trkpt lat="43.04566663744635" lon="11.477446263602413"><ele>537.0</ele><time>2026-04-11T08:24:19Z</time></trkpt><trkpt lat="43.04562445811927" lon="11.477355765743475"><ele>536.9999999999999</ele><time>2026-04-11T08:24:24Z</time></trkpt><trkpt lat="43.04558212016693" lon="11.477280091300996"><ele>537.0</ele><time>2026-04-11T08:24:31Z</time></trkpt><trkpt lat="43.045566958557124" lon="11.477186143655251"><ele>537.0</ele><time>2026-04-11T08:24:37Z</time></trkpt><trkpt lat="43.045543290924954" lon="11.477101155961748"><ele>537.0</ele><time>2026-04-11T08:24:40Z</time></trkpt><trkpt lat="43.04548232132037" lon="11.477041608951264"><ele>537.0</ele><time>2026-04-11T08:24:46Z</time></trkpt><trkpt lat="43.045442575851794" lon="11.476963407401435"><ele>536.9999999999999</ele><time>2026-04-11T08:24:51Z</time></trkpt><trkpt lat="43.04540954512303" lon="11.47686608220574"><ele>537.0</ele><time>2026-04-11T08:24:57Z</time></trkpt><trkpt lat="43.04537859872798" lon="11.476775055999665"><ele>534.4285714285713</ele><time>2026-04-11T08:25:06Z</time></trkpt><trkpt lat="43.04531617519294" lon="11.476719253792785"><ele>531.8571428571429</ele><time>2026-04-11T08:25:11Z</time></trkpt><trkpt lat="43.04527326986184" lon="11.476642201157615"><ele>529.2857142857142</ele><time>2026-04-11T08:25:18Z</time></trkpt><trkpt lat="43.04524188178444" lon="11.476559214582805"><ele>526.7142857142857</ele><time>2026-04-11T08:25:24Z</time></trkpt><trkpt lat="43.045181545411495" lon="11.476529973518966"><ele>524.1428571428571</ele><time>2026-04-11T08:25:29Z</time></trkpt><trkpt lat="43.04513590451722" lon="11.476466204295777"><ele>521.5714285714286</ele><time>2026-04-11T08:25:33Z</time></trkpt><trkpt lat="43.04506076906849" lon="11.476437670322516"><ele>519.0</ele><time>2026-04-11T08:25:39Z</time></trkpt><trkpt lat="43.04500968233574" lon="11.476375309521874"><ele>519.1666666666666</ele><time>2026-04-11T08:25:43Z</time></trkpt><trkpt lat="43.04495331188943" lon="11.476308877074025"><ele>519.3333333333334</ele><time>2026-04-11T08:25:49Z</time></trkpt><trkpt lat="43.04488988162033" lon="11.476274844469698"><ele>519.5</ele><time>2026-04-11T08:25:55Z</time></trkpt><trkpt lat="43.0448263515897" lon="11.476228518812604"><ele>519.6666666666667</ele><time>2026-04-11T08:26:00Z</time></trkpt><trkpt lat="43.04476396670904" lon="11.476193811450694"><ele>519.8333333333334</ele><time>2026-04-11T08:26:07Z</time></trkpt><trkpt lat="43.044669403868134" lon="11.476138440697074"><ele>520.0</ele><time>2026-04-11T08:26:13Z</time></trkpt><trkpt lat="43.04460461813299" lon="11.476079726232113"><ele>520.0</ele><time>2026-04-11T08:26:19Z</time></trkpt><trkpt lat="43.044539542766046" lon="11.476025144048638"><ele>520.0</ele><time>2026-04-11T08:26:25Z</time></trkpt><trkpt lat="43.04448487108671" lon="11.475965316473449"><ele>520.0</ele><time>2026-04-11T08:26:31Z</time></trkpt><trkpt lat="43.0444461927653" lon="11.475896575042812"><ele>520.0</ele><time>2026-04-11T08:26:37Z</time></trkpt><trkpt lat="43.04439932186253" lon="11.475799526216935"><ele>520.0</ele><time>2026-04-11T08:26:45Z</time></trkpt><trkpt lat="43.04434139238439" lon="11.475718262125131"><ele>520.0</ele><time>2026-04-11T08:26:51Z</time></trkpt><trkpt lat="43.04425667009228" lon="11.475640721074656"><ele>520.0</ele><time>2026-04-11T08:27:00Z</time></trkpt><trkpt lat="43.04417380305001" lon="11.475683020169042"><ele>520.0</ele><time>2026-04-11T08:27:19Z</time></trkpt><trkpt lat="43.04424768027761" lon="11.475685816347196"><ele>520.0</ele><time>2026-04-11T08:27:28Z</time></trkpt><trkpt lat="43.044252611875464" lon="11.475791406204879"><ele>520.0</ele><time>2026-04-11T08:28:06Z</time></trkpt><trkpt lat="43.04423229803002" lon="11.475892499719626"><ele>520.0</ele><time>2026-04-11T08:28:15Z</time></trkpt><trkpt lat="43.0441612781912" lon="11.475924958639794"><ele>520.0</ele><time>2026-04-11T08:28:22Z</time></trkpt><trkpt lat="43.044083218571494" lon="11.475935293022758"><ele>520.1428571428572</ele><time>2026-04-11T08:28:31Z</time></trkpt><trkpt lat="43.04401738724505" lon="11.475901314035891"><ele>520.2857142857143</ele><time>2026-04-11T08:28:37Z</time></trkpt><trkpt lat="43.04396673179001" lon="11.475792532156138"><ele>520.4285714285714</ele><time>2026-04-11T08:30:12Z</time></trkpt><trkpt lat="43.043927590427934" lon="11.47586233694837"><ele>520.5714285714287</ele><time>2026-04-11T08:33:25.999Z</time></trkpt><trkpt lat="43.04385802903996" lon="11.475910034273037"><ele>520.7142857142858</ele><time>2026-04-11T08:33:33.999Z</time></trkpt><trkpt lat="43.04382617850814" lon="11.475994082632559"><ele>520.8571428571429</ele><time>2026-04-11T08:33:43.999Z</time></trkpt><trkpt lat="43.04377545874215" lon="11.476054586099718"><ele>521.0</ele><time>2026-04-11T08:33:51.999Z</time></trkpt><trkpt lat="43.04370973683921" lon="11.47608642714628"><ele>521.0</ele><time>2026-04-11T08:34:11.999Z</time></trkpt><trkpt lat="43.04365068285995" lon="11.476121659667326"><ele>521.0</ele><time>2026-04-11T08:34:21.999Z</time></trkpt><trkpt lat="43.0436025062604" lon="11.476183154275573"><ele>521.0</ele><time>2026-04-11T08:34:30.999Z</time></trkpt><trkpt lat="43.04354957746297" lon="11.476247651468501"><ele>521.0</ele><time>2026-04-11T08:34:49.999Z</time></trkpt><trkpt lat="43.043527782751845" lon="11.476330540827165"><ele>521.0</ele><time>2026-04-11T08:34:58.999Z</time></trkpt><trkpt lat="43.043507719004715" lon="11.476421387973854"><ele>521.0</ele><time>2026-04-11T08:35:07.999Z</time></trkpt><trkpt lat="43.043476020410075" lon="11.476510401976999"><ele>521.0</ele><time>2026-04-11T08:35:17.999Z</time></trkpt><trkpt lat="43.04345064824694" lon="11.476597294178772"><ele>524.2857142857142</ele><time>2026-04-11T08:35:26.999Z</time></trkpt><trkpt lat="43.043466612488125" lon="11.476693052430631"><ele>527.5714285714286</ele><time>2026-04-11T08:35:36.999Z</time></trkpt><trkpt lat="43.04349256356425" lon="11.476773943081827"><ele>530.8571428571429</ele><time>2026-04-11T08:35:46.999Z</time></trkpt><trkpt lat="43.04351731561274" lon="11.476859043510617"><ele>534.1428571428571</ele><time>2026-04-11T08:35:56Z</time></trkpt><trkpt lat="43.0435338791298" lon="11.476947495489448"><ele>537.4285714285714</ele><time>2026-04-11T08:36:08Z</time></trkpt><trkpt lat="43.0434722611236" lon="11.476987271552927"><ele>540.7142857142857</ele><time>2026-04-11T08:36:17Z</time></trkpt><trkpt lat="43.04346459090451" lon="11.477076842315796"><ele>544.0</ele><time>2026-04-11T08:36:25Z</time></trkpt><trkpt lat="43.04345836789836" lon="11.477168783926443"><ele>546.2857142857142</ele><time>2026-04-11T08:36:31Z</time></trkpt><trkpt lat="43.043463806646464" lon="11.477265146089152"><ele>548.5714285714286</ele><time>2026-04-11T08:36:37Z</time></trkpt><trkpt lat="43.0434665968886" lon="11.477363919989536"><ele>550.8571428571429</ele><time>2026-04-11T08:36:53Z</time></trkpt><trkpt lat="43.043444804980275" lon="11.477446086140255"><ele>553.1428571428571</ele><time>2026-04-11T08:37:00Z</time></trkpt><trkpt lat="43.04342751408022" lon="11.477529397110805"><ele>555.4285714285714</ele><time>2026-04-11T08:37:08Z</time></trkpt><trkpt lat="43.0433977837027" lon="11.477612760400167"><ele>557.7142857142857</ele><time>2026-04-11T08:37:16Z</time></trkpt><trkpt lat="43.043371304168964" lon="11.477692964342276"><ele>560.0</ele><time>2026-04-11T08:37:25Z</time></trkpt><trkpt lat="43.04335096782839" lon="11.477777528203053"><ele>560.0</ele><time>2026-04-11T08:37:32Z</time></trkpt><trkpt lat="43.043365743302374" lon="11.477881743423817"><ele>560.0</ele><time>2026-04-11T08:37:46Z</time></trkpt><trkpt lat="43.04332043457261" lon="11.477954967095295"><ele>560.0</ele><time>2026-04-11T08:37:59Z</time></trkpt><trkpt lat="43.043285732685334" lon="11.478033916423335"><ele>560.0</ele><time>2026-04-11T08:38:12Z</time></trkpt><trkpt lat="43.043275307509184" lon="11.478123915796214"><ele>560.0</ele><time>2026-04-11T08:38:21Z</time></trkpt><trkpt lat="43.04325225194069" lon="11.478206201310645"><ele>560.0</ele><time>2026-04-11T08:38:31Z</time></trkpt><trkpt lat="43.043247880122514" lon="11.478293966140694"><ele>560.0</ele><time>2026-04-11T08:38:39Z</time></trkpt><trkpt lat="43.04324679478213" lon="11.47838416805289"><ele>559.1666666666666</ele><time>2026-04-11T08:38:50Z</time></trkpt><trkpt lat="43.043196136802344" lon="11.478460010742271"><ele>558.3333333333333</ele><time>2026-04-11T08:39:11Z</time></trkpt><trkpt lat="43.043125181562885" lon="11.478507932647783"><ele>557.5</ele><time>2026-04-11T08:39:59Z</time></trkpt><trkpt lat="43.04308707942511" lon="11.478595414257619"><ele>556.6666666666666</ele><time>2026-04-11T08:40:08Z</time></trkpt><trkpt lat="43.043093338433096" lon="11.478700596695274"><ele>555.8333333333334</ele><time>2026-04-11T08:40:16Z</time></trkpt><trkpt lat="43.04309504890251" lon="11.478797050045735"><ele>555.0</ele><time>2026-04-11T08:40:22Z</time></trkpt><trkpt lat="43.043085471399166" lon="11.478922900569115"><ele>557.1428571428572</ele><time>2026-04-11T08:40:28Z</time></trkpt><trkpt lat="43.0430666517945" lon="11.47901680691043"><ele>559.2857142857143</ele><time>2026-04-11T08:40:35Z</time></trkpt><trkpt lat="43.04304078924061" lon="11.479098247732026"><ele>561.4285714285714</ele><time>2026-04-11T08:40:42Z</time></trkpt><trkpt lat="43.04301201627665" lon="11.479191188748164"><ele>563.5714285714287</ele><time>2026-04-11T08:40:51Z</time></trkpt><trkpt lat="43.04298147086207" lon="11.479266642661019"><ele>565.7142857142858</ele><time>2026-04-11T08:40:58Z</time></trkpt><trkpt lat="43.042949690070984" lon="11.47935328110315"><ele>567.8571428571429</ele><time>2026-04-11T08:41:08Z</time></trkpt><trkpt lat="43.04289669971866" lon="11.479404942139128"><ele>570.0</ele><time>2026-04-11T08:41:15Z</time></trkpt><trkpt lat="43.0428385986703" lon="11.479466070764845"><ele>570.0</ele><time>2026-04-11T08:41:22Z</time></trkpt><trkpt lat="43.04277796552829" lon="11.479505980376002"><ele>570.0</ele><time>2026-04-11T08:41:28Z</time></trkpt><trkpt lat="43.04273148307972" lon="11.479576462288067"><ele>570.0</ele><time>2026-04-11T08:41:34Z</time></trkpt><trkpt lat="43.04267796994243" lon="11.47964032893022"><ele>570.0</ele><time>2026-04-11T08:41:39Z</time></trkpt><trkpt lat="43.04262999402446" lon="11.479703161104517"><ele>570.0</ele><time>2026-04-11T08:41:45Z</time></trkpt><trkpt lat="43.042583133307055" lon="11.479766442440225"><ele>570.0</ele><time>2026-04-11T08:41:51Z</time></trkpt><trkpt lat="43.04252492982142" lon="11.479843488391541"><ele>570.0</ele><time>2026-04-11T08:41:56Z</time></trkpt><trkpt lat="43.04246561474093" lon="11.479873199286944"><ele>572.4285714285714</ele><time>2026-04-11T08:42:00Z</time></trkpt><trkpt lat="43.042409719713234" lon="11.47993099472744"><ele>574.8571428571429</ele><time>2026-04-11T08:42:06Z</time></trkpt><trkpt lat="43.042381387760045" lon="11.480013641035058"><ele>577.2857142857143</ele><time>2026-04-11T08:42:12Z</time></trkpt><trkpt lat="43.042366382636004" lon="11.48010261446717"><ele>579.7142857142858</ele><time>2026-04-11T08:42:18Z</time></trkpt><trkpt lat="43.04233276734578" lon="11.480191875214981"><ele>582.1428571428572</ele><time>2026-04-11T08:42:24Z</time></trkpt><trkpt lat="43.04230040507364" lon="11.480268521867657"><ele>584.5714285714286</ele><time>2026-04-11T08:42:29Z</time></trkpt><trkpt lat="43.04226707336709" lon="11.48035351880675"><ele>587.0</ele><time>2026-04-11T08:42:35Z</time></trkpt><trkpt lat="43.04225555593422" lon="11.480446697734084"><ele>588.1428571428571</ele><time>2026-04-11T08:42:40Z</time></trkpt><trkpt lat="43.04223086834838" lon="11.480527787682398"><ele>589.2857142857143</ele><time>2026-04-11T08:42:44Z</time></trkpt><trkpt lat="43.042218308787106" lon="11.480641630027863"><ele>590.4285714285714</ele><time>2026-04-11T08:43:47Z</time></trkpt><trkpt lat="43.04224162451131" lon="11.480559196036767"><ele>591.5714285714286</ele><time>2026-04-11T08:44:38Z</time></trkpt><trkpt lat="43.04231258674129" lon="11.480512430686034"><ele>592.7142857142858</ele><time>2026-04-11T08:44:40Z</time></trkpt><trkpt lat="43.042261811990585" lon="11.480566411549965"><ele>593.8571428571429</ele><time>2026-04-11T08:44:46Z</time></trkpt><trkpt lat="43.042254646608725" lon="11.480652713729839"><ele>595.0</ele><time>2026-04-11T08:45:11Z</time></trkpt><trkpt lat="43.0422603239981" lon="11.480741939202671"><ele>595.0</ele><time>2026-04-11T08:45:20Z</time></trkpt><trkpt lat="43.04226697821451" lon="11.480836743714574"><ele>595.0</ele><time>2026-04-11T08:45:28Z</time></trkpt><trkpt lat="43.042275611563575" lon="11.480927458564276"><ele>595.0</ele><time>2026-04-11T08:45:37Z</time></trkpt><trkpt lat="43.042298347209915" lon="11.481018641132735"><ele>595.0</ele><time>2026-04-11T08:45:45Z</time></trkpt><trkpt lat="43.0423107327402" lon="11.48110878430516"><ele>595.0</ele><time>2026-04-11T08:45:52Z</time></trkpt><trkpt lat="43.04231282952647" lon="11.48120720226032"><ele>595.0</ele><time>2026-04-11T08:45:59Z</time></trkpt><trkpt lat="43.04230789887893" lon="11.481300435885954"><ele>595.0</ele><time>2026-04-11T08:46:08Z</time></trkpt><trkpt lat="43.042294825452615" lon="11.48138872432952"><ele>596.0</ele><time>2026-04-11T08:46:17Z</time></trkpt><trkpt lat="43.04228655245309" lon="11.481478451615155"><ele>597.0</ele><time>2026-04-11T08:46:26Z</time></trkpt><trkpt lat="43.04231114603488" lon="11.48156127222348"><ele>598.0</ele><time>2026-04-11T08:46:34Z</time></trkpt><trkpt lat="43.04231515466063" lon="11.481655800580159"><ele>599.0</ele><time>2026-04-11T08:46:41Z</time></trkpt><trkpt lat="43.04229094800854" lon="11.48174341500375"><ele>600.0</ele><time>2026-04-11T08:46:48Z</time></trkpt><trkpt lat="43.04228452419405" lon="11.481829188604522"><ele>601.0</ele><time>2026-04-11T08:46:55Z</time></trkpt><trkpt lat="43.042298486367905" lon="11.481922583687481"><ele>602.0</ele><time>2026-04-11T08:47:02Z</time></trkpt><trkpt lat="43.04234091129278" lon="11.481998841376997"><ele>602.0</ele><time>2026-04-11T08:47:09Z</time></trkpt><trkpt lat="43.04235977883459" lon="11.482087782709796"><ele>602.0</ele><time>2026-04-11T08:47:18Z</time></trkpt><trkpt lat="43.04239861895447" lon="11.482171125979022"><ele>602.0</ele><time>2026-04-11T08:47:26Z</time></trkpt><trkpt lat="43.042434680088874" lon="11.482248085909475"><ele>602.0</ele><time>2026-04-11T08:47:34Z</time></trkpt><trkpt lat="43.04247403176558" lon="11.482316184716208"><ele>602.0</ele><time>2026-04-11T08:47:50Z</time></trkpt><trkpt lat="43.04253662319842" lon="11.482325479150433"><ele>602.0</ele><time>2026-04-11T08:49:05Z</time></trkpt><trkpt lat="43.042611687353" lon="11.482341294512777"><ele>602.0</ele><time>2026-04-11T08:49:28Z</time></trkpt><trkpt lat="43.04267279515849" lon="11.482307701225494"><ele>602.2857142857143</ele><time>2026-04-11T08:49:39.001Z</time></trkpt><trkpt lat="43.04273492389175" lon="11.482269508893664"><ele>602.5714285714286</ele><time>2026-04-11T08:49:48.001Z</time></trkpt><trkpt lat="43.04280272552865" lon="11.482264686876894"><ele>602.8571428571429</ele><time>2026-04-11T08:49:56Z</time></trkpt><trkpt lat="43.04286456203333" lon="11.482241269511206"><ele>603.1428571428571</ele><time>2026-04-11T08:50:06Z</time></trkpt><trkpt lat="43.0429311120316" lon="11.482233350917989"><ele>603.4285714285714</ele><time>2026-04-11T08:50:17Z</time></trkpt><trkpt lat="43.043008687102784" lon="11.482202758419856"><ele>603.7142857142858</ele><time>2026-04-11T08:50:32Z</time></trkpt><trkpt lat="43.04307009984653" lon="11.482176271986775"><ele>604.0</ele><time>2026-04-11T08:50:48Z</time></trkpt><trkpt lat="43.04313740375803" lon="11.482160387450962"><ele>605.1428571428572</ele><time>2026-04-11T08:51:06Z</time></trkpt><trkpt lat="43.043154094323874" lon="11.482061824341152"><ele>606.2857142857143</ele><time>2026-04-11T08:51:24.001Z</time></trkpt><trkpt lat="43.04314699760761" lon="11.481969864103728"><ele>607.4285714285714</ele><time>2026-04-11T08:51:35.001Z</time></trkpt><trkpt lat="43.04315905978578" lon="11.482073972705697"><ele>608.5714285714287</ele><time>2026-04-11T08:51:49.001Z</time></trkpt><trkpt lat="43.043230413917904" lon="11.482062991108497"><ele>609.7142857142858</ele><time>2026-04-11T08:52:07Z</time></trkpt><trkpt lat="43.04329699587924" lon="11.482028361945588"><ele>610.8571428571429</ele><time>2026-04-11T08:52:14Z</time></trkpt><trkpt lat="43.043362000500075" lon="11.482012737326118"><ele>612.0</ele><time>2026-04-11T08:52:21Z</time></trkpt><trkpt lat="43.043363520964654" lon="11.48210597811782"><ele>612.4285714285714</ele><time>2026-04-11T08:52:29Z</time></trkpt><trkpt lat="43.043358844461025" lon="11.482207149270955"><ele>612.8571428571429</ele><time>2026-04-11T08:52:35Z</time></trkpt><trkpt lat="43.04335303241458" lon="11.482295100726107"><ele>613.2857142857142</ele><time>2026-04-11T08:52:40Z</time></trkpt><trkpt lat="43.04334410903161" lon="11.482383855244317"><ele>613.7142857142858</ele><time>2026-04-11T08:52:46Z</time></trkpt><trkpt lat="43.04334002218745" lon="11.482481234314218"><ele>614.1428571428572</ele><time>2026-04-11T08:52:52Z</time></trkpt><trkpt lat="43.043348552986906" lon="11.482578054113782"><ele>614.5714285714286</ele><time>2026-04-11T08:52:57Z</time></trkpt><trkpt lat="43.04336799062306" lon="11.482669786435517"><ele>615.0</ele><time>2026-04-11T08:53:02Z</time></trkpt><trkpt lat="43.04339206799099" lon="11.482767951624348"><ele>615.0</ele><time>2026-04-11T08:53:09Z</time></trkpt><trkpt lat="43.04339983371643" lon="11.48286328399866"><ele>615.0</ele><time>2026-04-11T08:53:13Z</time></trkpt><trkpt lat="43.0433980382197" lon="11.482956749950267"><ele>615.0</ele><time>2026-04-11T08:53:19Z</time></trkpt><trkpt lat="43.0434320214649" lon="11.48304376088033"><ele>615.0</ele><time>2026-04-11T08:53:26Z</time></trkpt><trkpt lat="43.043469827676915" lon="11.483120510205147"><ele>615.0</ele><time>2026-04-11T08:53:33Z</time></trkpt><trkpt lat="43.043526264335966" lon="11.48321385750907"><ele>615.0</ele><time>2026-04-11T08:53:41.001Z</time></trkpt><trkpt lat="43.04356065371655" lon="11.483286402335683"><ele>615.0</ele><time>2026-04-11T08:53:55.001Z</time></trkpt><trkpt lat="43.04359651143936" lon="11.483367656068566"><ele>615.0</ele><time>2026-04-11T08:54:02.001Z</time></trkpt><trkpt lat="43.0436391667851" lon="11.4834371569014"><ele>615.0</ele><time>2026-04-11T08:54:07.001Z</time></trkpt><trkpt lat="43.04366602147597" lon="11.483524377271976"><ele>615.0</ele><time>2026-04-11T08:54:38Z</time></trkpt><trkpt lat="43.043692858937355" lon="11.483608883271662"><ele>615.0</ele><time>2026-04-11T08:54:44Z</time></trkpt><trkpt lat="43.043710499055564" lon="11.483702036147488"><ele>615.0</ele><time>2026-04-11T08:54:50Z</time></trkpt><trkpt lat="43.04372958130086" lon="11.483794581090342"><ele>615.0</ele><time>2026-04-11T08:54:56Z</time></trkpt><trkpt lat="43.043787077812574" lon="11.4838391278979"><ele>615.0</ele><time>2026-04-11T08:55:01Z</time></trkpt><trkpt lat="43.0438431848409" lon="11.483894262197357"><ele>614.4285714285714</ele><time>2026-04-11T08:55:07Z</time></trkpt><trkpt lat="43.043902117181744" lon="11.483937505559654"><ele>613.8571428571429</ele><time>2026-04-11T08:55:14Z</time></trkpt><trkpt lat="43.04394499176793" lon="11.484001363947062"><ele>613.2857142857143</ele><time>2026-04-11T08:55:28Z</time></trkpt><trkpt lat="43.04400457174456" lon="11.483951593461851"><ele>612.7142857142858</ele><time>2026-04-11T08:56:20Z</time></trkpt><trkpt lat="43.04407936301278" lon="11.483943272581461"><ele>612.1428571428571</ele><time>2026-04-11T08:56:28Z</time></trkpt><trkpt lat="43.04415135454407" lon="11.483934946466142"><ele>611.5714285714287</ele><time>2026-04-11T08:56:36Z</time></trkpt><trkpt lat="43.044214581364294" lon="11.483935542809396"><ele>611.0</ele><time>2026-04-11T08:56:44Z</time></trkpt><trkpt lat="43.04428115140115" lon="11.483942147253366"><ele>611.0000000000001</ele><time>2026-04-11T08:56:50Z</time></trkpt><trkpt lat="43.044350058730714" lon="11.483931316054967"><ele>611.0</ele><time>2026-04-11T08:56:56Z</time></trkpt><trkpt lat="43.04441534729589" lon="11.483927980511774"><ele>611.0</ele><time>2026-04-11T08:57:01Z</time></trkpt><trkpt lat="43.04448914451753" lon="11.48393842015056"><ele>611.0</ele><time>2026-04-11T08:57:06Z</time></trkpt><trkpt lat="43.04457069339246" lon="11.483938367011223"><ele>611.0</ele><time>2026-04-11T08:57:11Z</time></trkpt><trkpt lat="43.04461711441535" lon="11.48402052646244"><ele>611.0000000000001</ele><time>2026-04-11T08:57:20Z</time></trkpt><trkpt lat="43.04467432288365" lon="11.484074695847513"><ele>611.0</ele><time>2026-04-11T08:57:27Z</time></trkpt><trkpt lat="43.04472879599275" lon="11.484130573762169"><ele>611.0000000000001</ele><time>2026-04-11T08:57:32Z</time></trkpt><trkpt lat="43.04478157895051" lon="11.484204390818652"><ele>611.0</ele><time>2026-04-11T08:57:38Z</time></trkpt><trkpt lat="43.044820480849104" lon="11.484273127731164"><ele>611.0</ele><time>2026-04-11T08:57:44Z</time></trkpt><trkpt lat="43.044859438188816" lon="11.484345061146454"><ele>611.0</ele><time>2026-04-11T08:57:51Z</time></trkpt><trkpt lat="43.044925042181504" lon="11.484397222207665"><ele>611.0</ele><time>2026-04-11T08:57:57Z</time></trkpt><trkpt lat="43.044987590191425" lon="11.48442110663474"><ele>611.0000000000001</ele><time>2026-04-11T08:58:01Z</time></trkpt><trkpt lat="43.0450534325299" lon="11.484427480192242"><ele>611.0</ele><time>2026-04-11T08:58:06Z</time></trkpt><trkpt lat="43.04512448512792" lon="11.48440711543581"><ele>611.1428571428572</ele><time>2026-04-11T08:58:11Z</time></trkpt><trkpt lat="43.04519357124072" lon="11.48446612933882"><ele>611.2857142857143</ele><time>2026-04-11T08:58:35Z</time></trkpt><trkpt lat="43.04524964738436" lon="11.484535196020952"><ele>611.4285714285714</ele><time>2026-04-11T08:59:13Z</time></trkpt><trkpt lat="43.04525163552946" lon="11.484628791610449"><ele>611.5714285714287</ele><time>2026-04-11T08:59:27Z</time></trkpt><trkpt lat="43.045226653323574" lon="11.484714018069036"><ele>611.7142857142858</ele><time>2026-04-11T08:59:35Z</time></trkpt><trkpt lat="43.045226951559656" lon="11.484802725597714"><ele>611.8571428571429</ele><time>2026-04-11T08:59:43Z</time></trkpt><trkpt lat="43.04525123605378" lon="11.484910027228318"><ele>612.0</ele><time>2026-04-11T08:59:52Z</time></trkpt><trkpt lat="43.04527465740945" lon="11.484999487976912"><ele>613.4285714285714</ele><time>2026-04-11T09:00:02Z</time></trkpt><trkpt lat="43.04528382255077" lon="11.485092131958671"><ele>614.8571428571429</ele><time>2026-04-11T09:00:09Z</time></trkpt><trkpt lat="43.045281593859144" lon="11.485188067085078"><ele>616.2857142857142</ele><time>2026-04-11T09:00:17Z</time></trkpt><trkpt lat="43.045288720226424" lon="11.48527923287319"><ele>617.7142857142858</ele><time>2026-04-11T09:00:23Z</time></trkpt><trkpt lat="43.04528375829982" lon="11.485366649916678"><ele>619.1428571428572</ele><time>2026-04-11T09:00:29Z</time></trkpt><trkpt lat="43.04529146104384" lon="11.485466493808255"><ele>620.5714285714286</ele><time>2026-04-11T09:00:36Z</time></trkpt><trkpt lat="43.04529418481478" lon="11.485555642443002"><ele>622.0</ele><time>2026-04-11T09:00:42Z</time></trkpt><trkpt lat="43.04529810760125" lon="11.485647613686712"><ele>622.0</ele><time>2026-04-11T09:00:49Z</time></trkpt><trkpt lat="43.04530468558924" lon="11.485746691902744"><ele>622.0</ele><time>2026-04-11T09:01:16Z</time></trkpt><trkpt lat="43.04534197074109" lon="11.485821315278148"><ele>622.0</ele><time>2026-04-11T09:01:26Z</time></trkpt><trkpt lat="43.04538288459789" lon="11.485898064274222"><ele>622.0</ele><time>2026-04-11T09:01:43Z</time></trkpt><trkpt lat="43.04540362880828" lon="11.485985698737908"><ele>622.0</ele><time>2026-04-11T09:01:49Z</time></trkpt><trkpt lat="43.04545575020066" lon="11.48606008029256"><ele>622.0</ele><time>2026-04-11T09:01:56Z</time></trkpt><trkpt lat="43.045499251901035" lon="11.486139591854286"><ele>622.0</ele><time>2026-04-11T09:02:02Z</time></trkpt><trkpt lat="43.045549067631626" lon="11.486201722780276"><ele>622.0</ele><time>2026-04-11T09:02:09Z</time></trkpt><trkpt lat="43.045610777326374" lon="11.486242825005581"><ele>622.0</ele><time>2026-04-11T09:02:16Z</time></trkpt><trkpt lat="43.04566307209251" lon="11.486302359581533"><ele>622.0</ele><time>2026-04-11T09:02:25Z</time></trkpt><trkpt lat="43.045722073148276" lon="11.486342349234622"><ele>622.0</ele><time>2026-04-11T09:02:31Z</time></trkpt><trkpt lat="43.045779481607966" lon="11.48641058006114"><ele>622.0</ele><time>2026-04-11T09:02:37Z</time></trkpt><trkpt lat="43.045834272002054" lon="11.486464197146944"><ele>622.0</ele><time>2026-04-11T09:02:43Z</time></trkpt><trkpt lat="43.04589787865823" lon="11.486504952109915"><ele>622.0</ele><time>2026-04-11T09:02:48Z</time></trkpt><trkpt lat="43.045962754053996" lon="11.486540798327944"><ele>622.8571428571428</ele><time>2026-04-11T09:02:58Z</time></trkpt><trkpt lat="43.0460299206172" lon="11.48657007871245"><ele>623.7142857142858</ele><time>2026-04-11T09:03:04Z</time></trkpt><trkpt lat="43.0460879520578" lon="11.486608917949212"><ele>624.5714285714286</ele><time>2026-04-11T09:03:09Z</time></trkpt><trkpt lat="43.04615989894" lon="11.486663984110782"><ele>625.4285714285713</ele><time>2026-04-11T09:03:14Z</time></trkpt><trkpt lat="43.0462290321015" lon="11.48666328090429"><ele>626.2857142857142</ele><time>2026-04-11T09:03:19Z</time></trkpt><trkpt lat="43.04629677982325" lon="11.486677500161479"><ele>627.1428571428571</ele><time>2026-04-11T09:03:25Z</time></trkpt><trkpt lat="43.0463510074204" lon="11.486732491333902"><ele>628.0</ele><time>2026-04-11T09:03:31Z</time></trkpt><trkpt lat="43.04642362874038" lon="11.486747143070293"><ele>627.9999999999999</ele><time>2026-04-11T09:03:38Z</time></trkpt><trkpt lat="43.04649727975509" lon="11.486750010784384"><ele>628.0</ele><time>2026-04-11T09:03:44Z</time></trkpt><trkpt lat="43.046564049058595" lon="11.486776914548605"><ele>628.0</ele><time>2026-04-11T09:03:51Z</time></trkpt><trkpt lat="43.046631648675934" lon="11.486786682029969"><ele>628.0</ele><time>2026-04-11T09:03:57Z</time></trkpt><trkpt lat="43.046709545892014" lon="11.486802416405999"><ele>628.0</ele><time>2026-04-11T09:04:03Z</time></trkpt><trkpt lat="43.04677912920095" lon="11.486823137554516"><ele>627.9999999999999</ele><time>2026-04-11T09:04:09Z</time></trkpt><trkpt lat="43.046841879917274" lon="11.486836019517208"><ele>628.0</ele><time>2026-04-11T09:04:15Z</time></trkpt><trkpt lat="43.046911557577126" lon="11.486851439191149"><ele>628.5714285714286</ele><time>2026-04-11T09:04:21Z</time></trkpt><trkpt lat="43.0469743316147" lon="11.486869467679535"><ele>629.1428571428571</ele><time>2026-04-11T09:04:27Z</time></trkpt><trkpt lat="43.04703771752568" lon="11.486880340141877"><ele>629.7142857142858</ele><time>2026-04-11T09:04:32Z</time></trkpt><trkpt lat="43.04710190347584" lon="11.486892242999563"><ele>630.2857142857142</ele><time>2026-04-11T09:04:37Z</time></trkpt><trkpt lat="43.0471723870558" lon="11.48690761056993"><ele>630.8571428571429</ele><time>2026-04-11T09:04:44Z</time></trkpt><trkpt lat="43.04723618394539" lon="11.486916842819747"><ele>631.4285714285714</ele><time>2026-04-11T09:04:48Z</time></trkpt><trkpt lat="43.04729849773994" lon="11.486932415197256"><ele>632.0</ele><time>2026-04-11T09:04:52Z</time></trkpt><trkpt lat="43.04736022086094" lon="11.486966523742746"><ele>632.0000000000001</ele><time>2026-04-11T09:04:59Z</time></trkpt><trkpt lat="43.04742172351639" lon="11.486995929064353"><ele>632.0</ele><time>2026-04-11T09:05:05Z</time></trkpt><trkpt lat="43.04749245602522" lon="11.487028846530993"><ele>632.0</ele><time>2026-04-11T09:05:11Z</time></trkpt><trkpt lat="43.04755269745996" lon="11.487058784891868"><ele>632.0</ele><time>2026-04-11T09:05:17Z</time></trkpt><trkpt lat="43.04761539503983" lon="11.487077914228237"><ele>632.0</ele><time>2026-04-11T09:05:21Z</time></trkpt><trkpt lat="43.047686202977616" lon="11.48711193776106"><ele>632.0000000000001</ele><time>2026-04-11T09:05:26Z</time></trkpt><trkpt lat="43.04774657508318" lon="11.487152149746994"><ele>632.0</ele><time>2026-04-11T09:05:32Z</time></trkpt><trkpt lat="43.04780811616878" lon="11.48719513655476"><ele>631.4285714285714</ele><time>2026-04-11T09:05:38Z</time></trkpt><trkpt lat="43.04786850358139" lon="11.487235407614264"><ele>630.8571428571429</ele><time>2026-04-11T09:05:44Z</time></trkpt><trkpt lat="43.047944272602784" lon="11.487265361142569"><ele>630.2857142857142</ele><time>2026-04-11T09:05:50Z</time></trkpt><trkpt lat="43.04800872529313" lon="11.487308617851792"><ele>629.7142857142858</ele><time>2026-04-11T09:05:56Z</time></trkpt><trkpt lat="43.048071065450266" lon="11.487353356792944"><ele>629.1428571428571</ele><time>2026-04-11T09:06:01Z</time></trkpt><trkpt lat="43.04814170685042" lon="11.487366217958192"><ele>628.5714285714286</ele><time>2026-04-11T09:06:06Z</time></trkpt><trkpt lat="43.048217614054536" lon="11.487373546468252"><ele>628.0</ele><time>2026-04-11T09:06:12Z</time></trkpt><trkpt lat="43.04829266779136" lon="11.487383988642828"><ele>627.7142857142857</ele><time>2026-04-11T09:06:17Z</time></trkpt><trkpt lat="43.0483589089869" lon="11.487404369030866"><ele>627.4285714285714</ele><time>2026-04-11T09:06:23Z</time></trkpt><trkpt lat="43.04843200567133" lon="11.48742458680696"><ele>627.1428571428571</ele><time>2026-04-11T09:06:29Z</time></trkpt><trkpt lat="43.048510898863064" lon="11.487417818947238"><ele>626.8571428571429</ele><time>2026-04-11T09:06:34Z</time></trkpt><trkpt lat="43.04857561641918" lon="11.487419752273883"><ele>626.5714285714286</ele><time>2026-04-11T09:06:39Z</time></trkpt><trkpt lat="43.04864327227015" lon="11.487452452705952"><ele>626.2857142857142</ele><time>2026-04-11T09:06:46Z</time></trkpt><trkpt lat="43.04871605531072" lon="11.48745589106716"><ele>626.0</ele><time>2026-04-11T09:06:51Z</time></trkpt><trkpt lat="43.04879667196631" lon="11.487448929525856"><ele>626.0</ele><time>2026-04-11T09:06:57Z</time></trkpt><trkpt lat="43.04886731464508" lon="11.487463414625356"><ele>626.0</ele><time>2026-04-11T09:07:04Z</time></trkpt><trkpt lat="43.0489425112797" lon="11.487476652522508"><ele>626.0</ele><time>2026-04-11T09:07:10Z</time></trkpt><trkpt lat="43.049018346602715" lon="11.487428581526475"><ele>626.0</ele><time>2026-04-11T09:08:14Z</time></trkpt><trkpt lat="43.049063983204896" lon="11.487488756220833"><ele>626.0</ele><time>2026-04-11T09:08:57Z</time></trkpt><trkpt lat="43.049126434995884" lon="11.487510924446982"><ele>626.0</ele><time>2026-04-11T09:09:05Z</time></trkpt><trkpt lat="43.049197285674396" lon="11.487500705737608"><ele>626.0</ele><time>2026-04-11T09:09:11Z</time></trkpt><trkpt lat="43.049261586198426" lon="11.487512078783118"><ele>626.0</ele><time>2026-04-11T09:09:17Z</time></trkpt><trkpt lat="43.04933267523467" lon="11.487522046155522"><ele>626.0</ele><time>2026-04-11T09:09:25Z</time></trkpt><trkpt lat="43.049404248900274" lon="11.48751589030716"><ele>626.0</ele><time>2026-04-11T09:09:31Z</time></trkpt><trkpt lat="43.049473781447006" lon="11.487524237140233"><ele>626.0</ele><time>2026-04-11T09:09:37Z</time></trkpt><trkpt lat="43.0495381032065" lon="11.487532813278534"><ele>626.0</ele><time>2026-04-11T09:09:42Z</time></trkpt><trkpt lat="43.04960769725243" lon="11.487580144842953"><ele>626.0</ele><time>2026-04-11T09:09:48Z</time></trkpt><trkpt lat="43.049677111574496" lon="11.487569537086559"><ele>626.0</ele><time>2026-04-11T09:09:55Z</time></trkpt><trkpt lat="43.04974305824285" lon="11.487531068383923"><ele>626.0</ele><time>2026-04-11T09:10:01Z</time></trkpt><trkpt lat="43.04983312915192" lon="11.487521226489745"><ele>626.0</ele><time>2026-04-11T09:10:55Z</time></trkpt><trkpt lat="43.049894885254126" lon="11.48749245647898"><ele>626.0</ele><time>2026-04-11T09:11:16Z</time></trkpt><trkpt lat="43.04995860330861" lon="11.487476735222147"><ele>626.0</ele><time>2026-04-11T09:11:25Z</time></trkpt><trkpt lat="43.050015508275926" lon="11.487526328496443"><ele>626.0</ele><time>2026-04-11T09:12:01Z</time></trkpt><trkpt lat="43.050078895641974" lon="11.487552774391485"><ele>626.0</ele><time>2026-04-11T09:12:09Z</time></trkpt><trkpt lat="43.05014033409443" lon="11.487578104665403"><ele>626.0</ele><time>2026-04-11T09:12:17Z</time></trkpt><trkpt lat="43.05020188969947" lon="11.487557877289637"><ele>625.8571428571429</ele><time>2026-04-11T09:12:24Z</time></trkpt><trkpt lat="43.05025913671593" lon="11.487601832793095"><ele>625.7142857142858</ele><time>2026-04-11T09:12:53Z</time></trkpt><trkpt lat="43.05032018298488" lon="11.48763076436554"><ele>625.5714285714287</ele><time>2026-04-11T09:14:59Z</time></trkpt><trkpt lat="43.050383576198314" lon="11.48766511280627"><ele>625.4285714285714</ele><time>2026-04-11T09:15:06Z</time></trkpt><trkpt lat="43.050446197618484" lon="11.487706443727374"><ele>625.2857142857143</ele><time>2026-04-11T09:15:13Z</time></trkpt><trkpt lat="43.05051177095295" lon="11.48773576382325"><ele>625.1428571428572</ele><time>2026-04-11T09:15:26Z</time></trkpt><trkpt lat="43.05056969250688" lon="11.487770738176943"><ele>625.0</ele><time>2026-04-11T09:15:32Z</time></trkpt><trkpt lat="43.050639753380516" lon="11.487788945787305"><ele>625.0000000000001</ele><time>2026-04-11T09:15:39Z</time></trkpt><trkpt lat="43.050673668007974" lon="11.487715846325179"><ele>625.0</ele><time>2026-04-11T09:15:44Z</time></trkpt><trkpt lat="43.050710217614096" lon="11.487642062299155"><ele>625.0</ele><time>2026-04-11T09:15:50Z</time></trkpt><trkpt lat="43.05075208901083" lon="11.487574954050755"><ele>625.0</ele><time>2026-04-11T09:15:56Z</time></trkpt><trkpt lat="43.050811227160885" lon="11.487518142256034"><ele>625.0</ele><time>2026-04-11T09:16:02Z</time></trkpt><trkpt lat="43.05087511567521" lon="11.487578136100444"><ele>625.0000000000001</ele><time>2026-04-11T09:16:34Z</time></trkpt><trkpt lat="43.05092767251027" lon="11.487653463663992"><ele>625.0</ele><time>2026-04-11T09:16:46Z</time></trkpt><trkpt lat="43.05098670906854" lon="11.487691665090559"><ele>625.2857142857143</ele><time>2026-04-11T09:16:54Z</time></trkpt><trkpt lat="43.05105393519002" lon="11.487710165870554"><ele>625.5714285714286</ele><time>2026-04-11T09:17:01Z</time></trkpt><trkpt lat="43.05111739965084" lon="11.48769266531274"><ele>625.8571428571429</ele><time>2026-04-11T09:17:10Z</time></trkpt><trkpt lat="43.05117815131954" lon="11.487663051856833"><ele>626.1428571428571</ele><time>2026-04-11T09:17:23Z</time></trkpt><trkpt lat="43.05124462737155" lon="11.487638095225996"><ele>626.4285714285714</ele><time>2026-04-11T09:17:31Z</time></trkpt><trkpt lat="43.05131398018134" lon="11.48763351337543"><ele>626.7142857142858</ele><time>2026-04-11T09:17:40Z</time></trkpt><trkpt lat="43.05137548985423" lon="11.487655551880298"><ele>627.0</ele><time>2026-04-11T09:17:47Z</time></trkpt><trkpt lat="43.05144316114924" lon="11.487649189684296"><ele>627.0</ele><time>2026-04-11T09:18:01Z</time></trkpt><trkpt lat="43.05150362998338" lon="11.487617193770467"><ele>627.0</ele><time>2026-04-11T09:18:09Z</time></trkpt><trkpt lat="43.05153125426084" lon="11.487534456884422"><ele>627.0</ele><time>2026-04-11T09:18:17Z</time></trkpt><trkpt lat="43.05153648763046" lon="11.487444397899779"><ele>627.0</ele><time>2026-04-11T09:18:24Z</time></trkpt><trkpt lat="43.051536126970014" lon="11.48734991726415"><ele>627.0</ele><time>2026-04-11T09:18:30Z</time></trkpt><trkpt lat="43.05152602424126" lon="11.487258181717825"><ele>627.0</ele><time>2026-04-11T09:18:49Z</time></trkpt><trkpt lat="43.05148433811492" lon="11.487181643368672"><ele>627.0</ele><time>2026-04-11T09:18:58Z</time></trkpt><trkpt lat="43.05146389408247" lon="11.48708636543998"><ele>626.8571428571429</ele><time>2026-04-11T09:19:04Z</time></trkpt><trkpt lat="43.05141414131146" lon="11.487019601296419"><ele>626.7142857142857</ele><time>2026-04-11T09:19:11Z</time></trkpt><trkpt lat="43.0513557138934" lon="11.486981918858891"><ele>626.5714285714286</ele><time>2026-04-11T09:19:17Z</time></trkpt><trkpt lat="43.05133741354761" lon="11.486898077072725"><ele>626.4285714285714</ele><time>2026-04-11T09:19:24Z</time></trkpt><trkpt lat="43.05140442568481" lon="11.486873036838027"><ele>626.2857142857143</ele><time>2026-04-11T09:19:31Z</time></trkpt><trkpt lat="43.051451201732846" lon="11.486809831641986"><ele>626.1428571428571</ele><time>2026-04-11T09:19:40Z</time></trkpt><trkpt lat="43.05149221302826" lon="11.48674369190872"><ele>626.0</ele><time>2026-04-11T09:19:49Z</time></trkpt><trkpt lat="43.05155472891244" lon="11.486687695951419"><ele>626.0</ele><time>2026-04-11T09:19:57Z</time></trkpt><trkpt lat="43.051619521334864" lon="11.486714128477272"><ele>626.0</ele><time>2026-04-11T09:20:02Z</time></trkpt><trkpt lat="43.05167810736389" lon="11.486761870725505"><ele>626.0</ele><time>2026-04-11T09:20:09Z</time></trkpt><trkpt lat="43.0517365242712" lon="11.486806328399615"><ele>626.0</ele><time>2026-04-11T09:20:16Z</time></trkpt><trkpt lat="43.05180115800977" lon="11.486846598847812"><ele>626.0</ele><time>2026-04-11T09:20:22Z</time></trkpt><trkpt lat="43.05186742464583" lon="11.486884139055439"><ele>626.0</ele><time>2026-04-11T09:20:36Z</time></trkpt><trkpt lat="43.051937157410585" lon="11.48691579899735"><ele>626.0</ele><time>2026-04-11T09:20:46Z</time></trkpt><trkpt lat="43.05199821358066" lon="11.4869565406099"><ele>624.8571428571429</ele><time>2026-04-11T09:20:53Z</time></trkpt><trkpt lat="43.05206812885214" lon="11.487008332045985"><ele>623.7142857142858</ele><time>2026-04-11T09:21:00Z</time></trkpt><trkpt lat="43.05212793044674" lon="11.487040178840006"><ele>622.5714285714287</ele><time>2026-04-11T09:21:07Z</time></trkpt><trkpt lat="43.05218662097093" lon="11.48708060548082"><ele>621.4285714285714</ele><time>2026-04-11T09:21:13Z</time></trkpt><trkpt lat="43.05223038289614" lon="11.4871536350345"><ele>620.2857142857143</ele><time>2026-04-11T09:21:19Z</time></trkpt><trkpt lat="43.05225939304243" lon="11.487235273315333"><ele>619.1428571428572</ele><time>2026-04-11T09:21:24Z</time></trkpt><trkpt lat="43.05228351148548" lon="11.487322430847513"><ele>618.0</ele><time>2026-04-11T09:21:38Z</time></trkpt><trkpt lat="43.05234754426422" lon="11.487340414227052"><ele>618.0000000000001</ele><time>2026-04-11T09:21:45Z</time></trkpt><trkpt lat="43.05238799747691" lon="11.487420825138573"><ele>618.0</ele><time>2026-04-11T09:21:54Z</time></trkpt><trkpt lat="43.052421309725325" lon="11.487509975155147"><ele>618.0</ele><time>2026-04-11T09:22:16Z</time></trkpt><trkpt lat="43.05247391402097" lon="11.48757502647203"><ele>618.0</ele><time>2026-04-11T09:22:24Z</time></trkpt><trkpt lat="43.05252411756193" lon="11.487635878850785"><ele>618.0</ele><time>2026-04-11T09:22:31Z</time></trkpt><trkpt lat="43.05258154781985" lon="11.487689171668448"><ele>618.0000000000001</ele><time>2026-04-11T09:22:39Z</time></trkpt><trkpt lat="43.052641058108236" lon="11.487741306959997"><ele>618.0</ele><time>2026-04-11T09:22:47Z</time></trkpt><trkpt lat="43.05269961508124" lon="11.487780698801311"><ele>614.5714285714287</ele><time>2026-04-11T09:22:54Z</time></trkpt><trkpt lat="43.05276579690014" lon="11.487806050846054"><ele>611.1428571428571</ele><time>2026-04-11T09:23:00Z</time></trkpt><trkpt lat="43.05283170305955" lon="11.487833863778649"><ele>607.7142857142858</ele><time>2026-04-11T09:23:07Z</time></trkpt><trkpt lat="43.052895228261114" lon="11.487874144992237"><ele>604.2857142857143</ele><time>2026-04-11T09:23:14Z</time></trkpt><trkpt lat="43.052963826462886" lon="11.487905926876815"><ele>600.8571428571429</ele><time>2026-04-11T09:23:21Z</time></trkpt><trkpt lat="43.05302720005687" lon="11.487943115371388"><ele>597.4285714285714</ele><time>2026-04-11T09:23:28Z</time></trkpt><trkpt lat="43.05309650881907" lon="11.487975243742378"><ele>594.0</ele><time>2026-04-11T09:23:35Z</time></trkpt><trkpt lat="43.05316314883544" lon="11.48801296477486"><ele>594.0</ele><time>2026-04-11T09:23:42Z</time></trkpt><trkpt lat="43.05324758531598" lon="11.488106782996171"><ele>594.0</ele><time>2026-04-11T09:23:57Z</time></trkpt><trkpt lat="43.053316535648236" lon="11.488129807214309"><ele>594.0</ele><time>2026-04-11T09:24:03Z</time></trkpt><trkpt lat="43.05338710952394" lon="11.48815830438181"><ele>594.0</ele><time>2026-04-11T09:24:12Z</time></trkpt><trkpt lat="43.05344048661266" lon="11.48821556449367"><ele>594.0</ele><time>2026-04-11T09:24:19Z</time></trkpt><trkpt lat="43.05351366158589" lon="11.488256208662236"><ele>594.0</ele><time>2026-04-11T09:24:26Z</time></trkpt><trkpt lat="43.05357821890589" lon="11.48825370784115"><ele>591.4285714285714</ele><time>2026-04-11T09:24:34Z</time></trkpt><trkpt lat="43.053647609896586" lon="11.488281425976737"><ele>588.8571428571429</ele><time>2026-04-11T09:24:41Z</time></trkpt><trkpt lat="43.05371531090866" lon="11.488307786101913"><ele>586.2857142857143</ele><time>2026-04-11T09:24:48Z</time></trkpt><trkpt lat="43.05379102735791" lon="11.488323848899693"><ele>583.7142857142858</ele><time>2026-04-11T09:24:55Z</time></trkpt><trkpt lat="43.05387000042038" lon="11.488342640144078"><ele>581.1428571428571</ele><time>2026-04-11T09:25:02Z</time></trkpt><trkpt lat="43.053934089805246" lon="11.488383422792406"><ele>578.5714285714287</ele><time>2026-04-11T09:25:11Z</time></trkpt><trkpt lat="43.05400132467959" lon="11.488413751223744"><ele>576.0</ele><time>2026-04-11T09:25:18Z</time></trkpt><trkpt lat="43.054087001486096" lon="11.488440349960738"><ele>574.4285714285714</ele><time>2026-04-11T09:25:25Z</time></trkpt><trkpt lat="43.05415792788007" lon="11.488482168984204"><ele>572.8571428571429</ele><time>2026-04-11T09:25:34Z</time></trkpt><trkpt lat="43.054223256177124" lon="11.488516028385007"><ele>571.2857142857142</ele><time>2026-04-11T09:25:42Z</time></trkpt><trkpt lat="43.05428860801643" lon="11.488533005087474"><ele>569.7142857142858</ele><time>2026-04-11T09:25:48Z</time></trkpt><trkpt lat="43.05435572530778" lon="11.48857300643528"><ele>568.1428571428571</ele><time>2026-04-11T09:25:54Z</time></trkpt><trkpt lat="43.05442657989669" lon="11.488605177831"><ele>566.5714285714286</ele><time>2026-04-11T09:26:01Z</time></trkpt><trkpt lat="43.05449245361301" lon="11.488638935074038"><ele>565.0</ele><time>2026-04-11T09:26:07Z</time></trkpt><trkpt lat="43.05455699219866" lon="11.488666066068904"><ele>564.9999999999999</ele><time>2026-04-11T09:26:13Z</time></trkpt><trkpt lat="43.054627317628054" lon="11.488682751516588"><ele>565.0</ele><time>2026-04-11T09:26:20Z</time></trkpt><trkpt lat="43.054699141715176" lon="11.48870709002004"><ele>565.0</ele><time>2026-04-11T09:26:27Z</time></trkpt><trkpt lat="43.05477005675883" lon="11.488704297540801"><ele>565.0</ele><time>2026-04-11T09:26:35Z</time></trkpt><trkpt lat="43.054833120050446" lon="11.488726160174838"><ele>565.0</ele><time>2026-04-11T09:26:41Z</time></trkpt><trkpt lat="43.05489305924297" lon="11.48875650194329"><ele>564.9999999999999</ele><time>2026-04-11T09:26:47Z</time></trkpt><trkpt lat="43.05495240363942" lon="11.488788231679141"><ele>565.0</ele><time>2026-04-11T09:26:56Z</time></trkpt><trkpt lat="43.05500955242624" lon="11.48883753209269"><ele>553.0</ele><time>2026-04-11T09:27:01Z</time></trkpt></trkseg></trk></gpx>